Аэропорт: Витебск Восточный. Витебск

ICAO: UMII

METAR:
2021-07-28 14:11:00
UMII 281411Z 36004MPS 6000 -SHRA VCTS SCT006 BKN033CB 21/18 Q1010 R23/190075 TEMPO 2000 TSRA BKN005 RMK QBB200
METAR:
2021-07-28 11:09:00
TAF UMII 281109Z 2812/2821 29004MPS 8000 BKN017 TX26/2814Z TN21/2818Z TEMPO 2812/2821 25004G09MPS 3000 -TSRA BKN007 BKN015CB